Time;durP1;ratioP1;P1;durP2;ratioP2;P2;SDS_P1;SDS_P2;PMS_P1;PMS_P2;Temp;Humidity;BMP_temperature;BMP_pressure;BME280_temperature;BME280_humidity;BME280_pressure;Samples;Min_cycle;Max_cycle;Signal;HPM_P1;HPM_P2
2023/08/08 00:01:51;;;;;;;7.10;3.80;;;10.30;99.90;;;;;;4986697;28;20027;-80
2023/08/08 00:04:17;;;;;;;6.85;3.67;;;10.30;99.90;;;;;;4989806;28;20369;-80
2023/08/08 00:06:43;;;;;;;7.00;4.20;;;10.30;99.90;;;;;;4980993;28;20065;-81
2023/08/08 00:09:08;;;;;;;12.85;4.32;;;10.30;99.90;;;;;;4961889;28;20058;-82
2023/08/08 00:11:34;;;;;;;6.97;4.25;;;10.30;99.90;;;;;;4989364;28;20138;-81
2023/08/08 00:14:00;;;;;;;12.68;4.43;;;10.40;99.90;;;;;;4994217;28;20137;-82
2023/08/08 00:16:26;;;;;;;7.88;4.10;;;10.40;99.90;;;;;;4992271;28;20035;-83
2023/08/08 00:18:53;;;;;;;17.77;4.80;;;10.40;99.90;;;;;;4999222;28;20030;-82
2023/08/08 00:21:22;;;;;;;54.60;6.65;;;10.40;99.90;;;;;;4961165;28;20057;-83
2023/08/08 00:23:48;;;;;;;43.75;6.13;;;10.40;99.90;;;;;;4990072;28;20641;-83
2023/08/08 00:26:14;;;;;;;5.25;3.25;;;10.40;99.90;;;;;;4956602;28;20041;-84
2023/08/08 00:28:40;;;;;;;40.97;5.68;;;10.40;99.90;;;;;;4954938;28;20511;-83
2023/08/08 00:31:07;;;;;;;38.80;5.30;;;10.50;99.90;;;;;;4960644;28;20037;-83
2023/08/08 00:33:33;;;;;;;109.20;8.43;;;10.50;99.90;;;;;;4958797;28;20022;-83
2023/08/08 00:35:58;;;;;;;32.38;4.43;;;10.50;99.90;;;;;;4972357;28;20091;-84
2023/08/08 00:38:26;;;;;;;33.85;4.22;;;10.50;99.90;;;;;;4959655;28;20486;-83
2023/08/08 00:40:51;;;;;;;19.35;3.53;;;10.50;99.90;;;;;;4962413;28;20034;-84
2023/08/08 00:43:17;;;;;;;8.07;3.35;;;10.50;99.90;;;;;;4975837;28;20041;-83
2023/08/08 00:45:46;;;;;;;22.67;3.90;;;10.50;99.90;;;;;;4962125;28;20503;-83
2023/08/08 00:48:13;;;;;;;55.83;6.18;;;10.50;99.90;;;;;;4961057;28;20034;-83
2023/08/08 00:50:43;;;;;;;5.05;2.90;;;10.50;99.90;;;;;;4976162;28;20031;-84
2023/08/08 00:53:09;;;;;;;24.58;4.32;;;10.50;99.90;;;;;;4967467;28;20034;-83
2023/08/08 00:55:35;;;;;;;18.73;3.65;;;10.50;99.90;;;;;;4961431;28;20023;-85
2023/08/08 00:58:02;;;;;;;5.78;2.67;;;10.50;99.90;;;;;;4945614;28;20035;-84
2023/08/08 01:00:28;;;;;;;7.68;3.25;;;10.50;99.90;;;;;;4951909;28;20562;-81
2023/08/08 01:02:54;;;;;;;12.63;3.13;;;10.50;99.90;;;;;;4970349;28;20162;-82
2023/08/08 01:05:20;;;;;;;16.35;2.97;;;10.40;99.90;;;;;;4963440;28;20677;-82
2023/08/08 01:08:05;;;;;;;3.47;2.90;;;10.40;99.90;;;;;;4980703;28;20069;-82
2023/08/08 01:10:38;;;;;;;5.88;2.88;;;10.40;99.90;;;;;;4988895;28;20041;-83
2023/08/08 01:13:17;;;;;;;6.80;3.30;;;10.30;99.90;;;;;;4987883;28;20065;-84
2023/08/08 01:15:46;;;;;;;5.68;3.00;;;10.30;99.90;;;;;;4976745;28;20102;-82
2023/08/08 01:18:14;;;;;;;6.88;3.28;;;10.30;99.90;;;;;;4997880;28;20126;-82
2023/08/08 01:20:41;;;;;;;6.97;3.70;;;10.30;99.90;;;;;;4973968;28;20065;-80
2023/08/08 01:23:10;;;;;;;6.80;3.53;;;10.20;99.90;;;;;;4995032;28;20045;-82
2023/08/08 01:25:36;;;;;;;9.57;4.07;;;10.20;99.90;;;;;;4954856;28;20049;-82
2023/08/08 01:28:03;;;;;;;10.73;4.10;;;10.20;99.90;;;;;;4993850;28;20064;-80
2023/08/08 01:30:30;;;;;;;7.32;4.13;;;10.20;99.90;;;;;;4978828;28;20526;-82
2023/08/08 01:32:56;;;;;;;22.58;4.25;;;10.20;99.90;;;;;;4965696;28;20030;-80
2023/08/08 01:35:23;;;;;;;13.27;4.25;;;10.20;99.90;;;;;;4989704;28;20447;-84
2023/08/08 01:37:54;;;;;;;12.23;4.72;;;10.20;99.90;;;;;;4962389;28;20129;-82
2023/08/08 01:40:21;;;;;;;52.08;6.45;;;10.20;99.90;;;;;;4992517;28;20045;-83
2023/08/08 01:42:48;;;;;;;11.55;4.25;;;10.20;99.90;;;;;;4953910;28;20093;-83
2023/08/08 01:45:16;;;;;;;6.70;4.20;;;10.20;99.90;;;;;;4974705;28;20057;-82
2023/08/08 01:47:42;;;;;;;135.25;11.80;;;10.30;99.90;;;;;;4977613;28;20037;-83
2023/08/08 01:50:26;;;;;;;28.53;5.87;;;10.30;99.90;;;;;;4989900;28;20085;-80
2023/08/08 01:52:52;;;;;;;24.17;5.22;;;10.30;99.90;;;;;;4965678;28;20031;-80
2023/08/08 01:55:19;;;;;;;8.63;4.63;;;10.30;99.90;;;;;;4962323;28;20070;-82
2023/08/08 01:57:45;;;;;;;82.07;10.13;;;10.30;99.90;;;;;;4985334;28;20039;-82
2023/08/08 02:00:12;;;;;;;11.38;5.22;;;10.40;99.90;;;;;;4947500;28;20038;-82
2023/08/08 02:02:43;;;;;;;36.22;6.85;;;10.40;99.90;;;;;;4974335;28;20038;-82
2023/08/08 02:05:27;;;;;;;10.93;5.22;;;10.40;99.90;;;;;;4979112;28;20109;-81
2023/08/08 02:08:03;;;;;;;16.48;5.35;;;10.40;99.90;;;;;;4959937;28;20038;-83
2023/08/08 02:10:30;;;;;;;7.93;4.68;;;10.40;99.90;;;;;;4973418;28;20105;-82
2023/08/08 02:12:57;;;;;;;8.55;5.22;;;10.40;99.90;;;;;;4986925;28;20194;-82
2023/08/08 02:15:22;;;;;;;12.52;4.90;;;10.40;99.90;;;;;;4971623;28;20056;-82
2023/08/08 02:17:50;;;;;;;14.90;4.97;;;10.40;99.90;;;;;;4949531;28;20034;-83
2023/08/08 02:20:16;;;;;;;19.98;5.22;;;10.40;99.90;;;;;;4995138;28;20450;-80
2023/08/08 02:22:42;;;;;;;8.73;5.00;;;10.50;99.90;;;;;;4995257;28;20062;-82
2023/08/08 02:25:08;;;;;;;14.48;5.47;;;10.50;99.90;;;;;;4994688;28;20030;-80
2023/08/08 02:27:34;;;;;;;23.73;6.50;;;10.50;99.90;;;;;;4977408;28;20098;-83
2023/08/08 02:30:00;;;;;;;18.42;5.38;;;10.50;99.90;;;;;;4948748;28;20085;-83
2023/08/08 02:32:26;;;;;;;11.35;5.50;;;10.50;99.90;;;;;;4986021;28;20028;-83
2023/08/08 02:34:53;;;;;;;11.55;5.30;;;10.50;99.90;;;;;;4990750;28;20031;-83
2023/08/08 02:37:19;;;;;;;47.15;6.07;;;10.50;99.90;;;;;;4949668;28;20633;-81
2023/08/08 02:39:45;;;;;;;30.67;5.95;;;10.50;99.90;;;;;;4959225;28;20042;-82
2023/08/08 02:42:11;;;;;;;8.48;4.93;;;10.40;99.90;;;;;;4991046;28;20451;-82
2023/08/08 02:44:36;;;;;;;8.48;4.90;;;10.40;99.90;;;;;;4980256;28;20215;-82
2023/08/08 02:47:02;;;;;;;7.38;4.88;;;10.40;99.90;;;;;;4995876;28;20031;-83
2023/08/08 02:49:28;;;;;;;9.93;4.95;;;10.40;99.90;;;;;;4956036;28;20030;-83
2023/08/08 02:51:54;;;;;;;8.20;5.13;;;10.40;99.90;;;;;;4976761;28;20122;-80
2023/08/08 02:54:20;;;;;;;12.63;5.60;;;10.40;99.90;;;;;;4950026;28;20035;-80
2023/08/08 02:56:47;;;;;;;10.50;5.53;;;10.50;99.90;;;;;;4975075;28;20030;-82
2023/08/08 02:59:13;;;;;;;10.13;5.65;;;10.40;99.90;;;;;;4968589;28;20031;-81
2023/08/08 03:01:39;;;;;;;6.20;5.18;;;10.50;99.90;;;;;;4983621;28;20122;-82
2023/08/08 03:04:12;;;;;;;7.13;5.22;;;10.40;99.90;;;;;;4973141;28;20484;-83
2023/08/08 03:06:37;;;;;;;7.90;5.47;;;10.40;99.90;;;;;;4991106;28;20035;-80
2023/08/08 03:09:03;;;;;;;11.25;5.47;;;10.40;99.90;;;;;;4968426;28;20069;-81
2023/08/08 03:11:31;;;;;;;11.05;5.15;;;10.50;99.90;;;;;;4970951;28;20097;-84
2023/08/08 03:13:57;;;;;;;11.38;5.32;;;10.40;99.90;;;;;;4970402;28;20037;-83
2023/08/08 03:16:23;;;;;;;9.32;4.80;;;10.40;99.90;;;;;;4960167;28;20035;-84
2023/08/08 03:18:48;;;;;;;46.90;6.78;;;10.40;99.90;;;;;;4946520;28;20400;-82
2023/08/08 03:21:14;;;;;;;32.83;6.13;;;10.40;99.90;;;;;;4980762;28;20074;-81
2023/08/08 03:23:40;;;;;;;16.52;5.50;;;10.40;99.90;;;;;;4980101;28;20096;-83
2023/08/08 03:26:06;;;;;;;15.13;5.55;;;10.40;99.90;;;;;;4963399;28;20030;-79
2023/08/08 03:28:32;;;;;;;57.28;7.05;;;10.40;99.90;;;;;;4967850;28;20034;-80
2023/08/08 03:30:58;;;;;;;10.02;5.13;;;10.30;99.90;;;;;;4959725;28;20038;-81
2023/08/08 03:33:25;;;;;;;9.10;5.75;;;10.30;99.90;;;;;;4989690;28;20034;-81
2023/08/08 03:35:51;;;;;;;68.43;8.45;;;10.30;99.90;;;;;;4965824;28;20037;-83
2023/08/08 03:38:17;;;;;;;27.58;6.30;;;10.40;99.90;;;;;;4955955;28;20499;-84
2023/08/08 03:40:43;;;;;;;60.63;8.48;;;10.40;99.90;;;;;;4963980;28;20037;-83
2023/08/08 03:43:09;;;;;;;63.03;8.70;;;10.30;99.90;;;;;;4962643;28;20388;-82
2023/08/08 03:45:35;;;;;;;30.58;7.13;;;10.30;99.90;;;;;;4980516;28;20034;-84
2023/08/08 03:48:01;;;;;;;88.57;9.63;;;10.40;99.90;;;;;;4979436;28;20065;-84
2023/08/08 03:50:28;;;;;;;46.58;7.53;;;10.40;99.90;;;;;;4977693;28;20057;-83
2023/08/08 03:52:54;;;;;;;62.45;8.70;;;10.40;99.90;;;;;;4981013;28;20037;-82
2023/08/08 03:55:20;;;;;;;18.73;7.32;;;10.30;99.90;;;;;;4979157;28;20058;-83
2023/08/08 03:57:45;;;;;;;26.45;6.78;;;10.30;99.90;;;;;;4961555;28;20376;-81
2023/08/08 04:00:12;;;;;;;6.80;5.50;;;10.30;99.90;;;;;;4977489;28;20627;-83
2023/08/08 04:02:41;;;;;;;13.25;6.30;;;10.30;99.90;;;;;;4996967;28;21353;-80
2023/08/08 04:05:07;;;;;;;10.32;6.53;;;10.30;99.90;;;;;;4963946;28;20058;-82
2023/08/08 04:07:33;;;;;;;9.68;5.90;;;10.30;99.90;;;;;;4997441;28;20437;-82
2023/08/08 04:09:58;;;;;;;9.40;6.70;;;10.30;99.90;;;;;;4998544;28;20031;-83
2023/08/08 04:12:26;;;;;;;10.18;6.43;;;10.30;99.90;;;;;;4991737;28;21066;-81
2023/08/08 04:14:53;;;;;;;9.20;6.13;;;10.30;99.90;;;;;;4970397;28;20118;-83
2023/08/08 04:17:19;;;;;;;43.47;8.18;;;10.30;99.90;;;;;;4964039;28;20059;-84
2023/08/08 04:19:44;;;;;;;6.70;5.97;;;10.30;99.90;;;;;;4978389;28;20042;-83
2023/08/08 04:22:10;;;;;;;17.33;7.45;;;10.30;99.90;;;;;;4979930;28;20117;-83
2023/08/08 04:24:36;;;;;;;16.23;6.40;;;10.30;99.90;;;;;;4973265;28;20034;-83
2023/08/08 04:27:02;;;;;;;11.23;6.30;;;10.30;99.90;;;;;;4979114;28;20035;-82
2023/08/08 04:29:28;;;;;;;8.98;6.55;;;10.30;99.90;;;;;;4997252;28;20515;-83
2023/08/08 04:31:53;;;;;;;29.42;7.88;;;10.40;99.90;;;;;;4977343;28;20038;-82
2023/08/08 04:34:19;;;;;;;14.48;6.68;;;10.40;99.90;;;;;;4955982;28;20039;-83
2023/08/08 04:36:45;;;;;;;17.42;6.95;;;10.40;99.90;;;;;;4962921;28;20026;-82
2023/08/08 04:39:11;;;;;;;10.40;6.07;;;10.40;99.90;;;;;;4998112;28;20046;-83
2023/08/08 04:41:55;;;;;;;8.60;5.88;;;10.50;99.90;;;;;;4993781;28;20030;-82
2023/08/08 04:44:21;;;;;;;8.07;6.53;;;10.50;99.90;;;;;;4956429;28;20077;-82
2023/08/08 04:46:47;;;;;;;52.75;8.65;;;10.50;99.90;;;;;;4992799;28;20038;-84
2023/08/08 04:49:13;;;;;;;14.18;6.35;;;10.50;99.90;;;;;;4975959;28;20670;-81
2023/08/08 04:51:38;;;;;;;10.27;6.05;;;10.50;99.90;;;;;;4994866;28;20041;-83
2023/08/08 04:54:04;;;;;;;8.23;5.70;;;10.50;99.90;;;;;;4960013;28;20034;-82
2023/08/08 04:56:30;;;;;;;8.57;6.20;;;10.60;99.90;;;;;;4993172;28;20090;-81
2023/08/08 04:59:14;;;;;;;13.70;5.57;;;10.60;99.90;;;;;;4987873;28;20702;-82
2023/08/08 05:01:40;;;;;;;11.38;5.53;;;10.60;99.90;;;;;;4963887;28;20046;-83
2023/08/08 05:04:06;;;;;;;7.97;5.95;;;10.70;99.90;;;;;;4956218;28;20062;-81
2023/08/08 05:06:32;;;;;;;9.70;5.82;;;10.70;99.90;;;;;;4962649;28;20039;-82
2023/08/08 05:08:57;;;;;;;8.27;5.47;;;10.70;99.90;;;;;;4986238;28;20073;-83
2023/08/08 05:11:23;;;;;;;11.07;5.60;;;10.70;99.90;;;;;;4975403;28;20039;-82
2023/08/08 05:13:49;;;;;;;8.25;6.10;;;10.80;99.90;;;;;;4975344;28;20042;-81
2023/08/08 05:16:34;;;;;;;7.82;5.75;;;10.80;99.90;;;;;;4974095;28;20518;-82
2023/08/08 05:18:59;;;;;;;10.63;6.25;;;10.90;99.90;;;;;;4997118;28;20038;-81
2023/08/08 05:21:25;;;;;;;10.20;5.65;;;10.90;99.90;;;;;;4993459;28;20034;-79
2023/08/08 05:23:51;;;;;;;10.27;5.47;;;10.90;99.90;;;;;;4979269;28;20053;-81
2023/08/08 05:26:17;;;;;;;7.85;5.63;;;11.00;99.90;;;;;;4987876;28;20038;-81
2023/08/08 05:28:43;;;;;;;15.60;6.90;;;11.00;99.90;;;;;;4985543;28;20498;-80
2023/08/08 05:31:09;;;;;;;6.95;5.57;;;11.00;99.90;;;;;;4992613;28;20039;-81
2023/08/08 05:33:35;;;;;;;8.70;5.20;;;11.10;99.90;;;;;;4990529;28;20066;-80
2023/08/08 05:36:00;;;;;;;7.90;5.15;;;11.10;99.90;;;;;;4995253;28;20078;-80
2023/08/08 05:38:26;;;;;;;8.52;5.10;;;11.10;99.90;;;;;;4992470;28;20122;-80
2023/08/08 05:40:52;;;;;;;6.35;5.10;;;11.20;99.90;;;;;;4990601;28;20587;-83
2023/08/08 05:43:18;;;;;;;6.80;5.20;;;11.20;99.90;;;;;;4976973;28;20043;-81
2023/08/08 05:45:44;;;;;;;6.28;5.35;;;11.30;99.90;;;;;;4959843;28;20046;-83
2023/08/08 05:48:12;;;;;;;8.52;5.72;;;11.40;99.90;;;;;;4996152;28;20049;-82
2023/08/08 05:50:40;;;;;;;8.45;5.57;;;11.40;99.90;;;;;;4991448;28;20034;-82
2023/08/08 05:53:07;;;;;;;10.70;6.25;;;11.50;99.90;;;;;;4984821;28;20026;-80
2023/08/08 05:55:33;;;;;;;6.22;5.30;;;11.60;99.90;;;;;;4985161;28;20411;-82
2023/08/08 05:57:58;;;;;;;7.80;5.03;;;11.70;99.90;;;;;;4983993;28;20030;-79
2023/08/08 06:00:24;;;;;;;6.13;5.15;;;12.00;99.90;;;;;;4986303;28;20063;-82
2023/08/08 06:02:50;;;;;;;5.65;4.03;;;12.30;99.90;;;;;;4985767;28;20031;-81
2023/08/08 06:05:22;;;;;;;4.20;3.85;;;12.50;99.90;;;;;;4990368;28;20057;-79
2023/08/08 06:07:47;;;;;;;4.28;3.63;;;12.80;99.90;;;;;;4992472;28;20094;-80
2023/08/08 06:10:13;;;;;;;4.32;3.38;;;13.10;99.90;;;;;;4986736;28;20055;-81
2023/08/08 06:12:39;;;;;;;3.35;3.05;;;13.30;99.90;;;;;;4988465;28;20026;-81
2023/08/08 06:15:06;;;;;;;3.65;3.35;;;13.50;99.90;;;;;;4990632;28;20931;-82
2023/08/08 06:17:32;;;;;;;3.00;2.70;;;13.70;99.90;;;;;;4976786;28;20057;-80
2023/08/08 06:19:58;;;;;;;2.55;2.35;;;14.00;99.90;;;;;;4992473;28;20058;-80
2023/08/08 06:22:23;;;;;;;5.80;2.20;;;14.30;99.90;;;;;;4976677;28;20109;-80
2023/08/08 06:24:49;;;;;;;2.75;2.55;;;14.50;99.90;;;;;;4967069;28;20100;-83
2023/08/08 06:27:15;;;;;;;4.65;2.63;;;14.70;99.90;;;;;;4991207;28;20051;-83
2023/08/08 06:29:41;;;;;;;3.90;2.47;;;14.90;99.90;;;;;;4990756;28;20038;-81
2023/08/08 06:32:07;;;;;;;4.95;2.25;;;15.10;99.90;;;;;;4997698;28;20030;-82
2023/08/08 06:34:33;;;;;;;2.42;2.10;;;15.20;99.90;;;;;;4991407;28;20034;-80
2023/08/08 06:36:59;;;;;;;4.68;2.42;;;15.20;99.90;;;;;;4992898;28;20399;-80
2023/08/08 06:39:25;;;;;;;2.88;2.50;;;15.10;99.90;;;;;;4990399;28;20038;-78
2023/08/08 06:41:51;;;;;;;3.25;2.03;;;15.20;99.90;;;;;;4987688;28;20038;-79
2023/08/08 06:44:32;;;;;;;6.80;2.45;;;15.20;99.90;;;;;;4991175;28;20030;-81
2023/08/08 06:46:58;;;;;;;2.58;2.30;;;15.50;99.90;;;;;;4991961;28;20029;-81
2023/08/08 06:49:23;;;;;;;2.47;2.22;;;15.70;99.90;;;;;;4991833;28;20121;-80
2023/08/08 06:51:49;;;;;;;3.58;2.22;;;15.80;99.90;;;;;;4994731;28;20032;-81
2023/08/08 06:54:15;;;;;;;4.82;2.00;;;15.70;99.90;;;;;;4975232;28;20035;-81
2023/08/08 06:56:59;;;;;;;3.97;2.10;;;15.70;99.90;;;;;;4979468;28;20239;-82
2023/08/08 06:59:26;;;;;;;3.28;2.25;;;15.90;99.90;;;;;;4996819;28;20038;-82
2023/08/08 07:01:52;;;;;;;4.97;2.00;;;16.00;99.90;;;;;;4961189;28;20096;-80
2023/08/08 07:04:18;;;;;;;2.22;1.92;;;16.40;99.90;;;;;;4974186;28;20065;-80
2023/08/08 07:06:44;;;;;;;2.63;2.40;;;16.50;99.90;;;;;;4990647;28;20065;-79
2023/08/08 07:09:11;;;;;;;4.20;2.17;;;16.70;99.90;;;;;;4988989;28;20550;-80
2023/08/08 07:11:37;;;;;;;3.90;2.10;;;16.80;99.90;;;;;;4985733;28;20123;-81
2023/08/08 07:14:04;;;;;;;2.53;1.95;;;16.90;99.90;;;;;;4972553;28;20598;-82
2023/08/08 07:16:29;;;;;;;3.08;1.98;;;16.90;99.90;;;;;;4979653;28;20038;-80
2023/08/08 07:18:55;;;;;;;2.80;2.30;;;16.70;99.90;;;;;;4993266;28;20580;-80
2023/08/08 07:21:21;;;;;;;2.45;2.25;;;16.40;99.90;;;;;;4988927;28;20034;-80
2023/08/08 07:23:48;;;;;;;3.17;2.55;;;16.20;99.90;;;;;;4996513;28;20045;-81
2023/08/08 07:26:34;;;;;;;3.35;2.95;;;15.90;99.90;;;;;;4974224;28;20030;-81
2023/08/08 07:29:01;;;;;;;3.67;3.00;;;15.60;99.90;;;;;;5001967;28;20053;-80
2023/08/08 07:31:27;;;;;;;7.72;3.53;;;15.50;99.90;;;;;;4974090;28;20026;-81
2023/08/08 07:33:53;;;;;;;3.67;3.25;;;15.30;99.90;;;;;;5000086;28;20030;-81
2023/08/08 07:36:19;;;;;;;5.32;3.30;;;15.20;99.90;;;;;;4981602;28;20062;-79
2023/08/08 07:38:46;;;;;;;4.20;3.35;;;15.30;99.90;;;;;;5003416;28;20042;-81
2023/08/08 07:41:14;;;;;;;3.78;2.80;;;15.30;99.90;;;;;;4950540;28;20042;-79
2023/08/08 07:43:39;;;;;;;3.92;3.25;;;15.30;99.90;;;;;;4993948;28;20046;-80
2023/08/08 07:46:08;;;;;;;3.83;2.75;;;15.40;99.90;;;;;;4993040;28;20038;-80
2023/08/08 07:48:34;;;;;;;4.95;3.28;;;15.40;99.90;;;;;;4999799;28;20031;-81
2023/08/08 07:51:00;;;;;;;3.95;2.67;;;15.60;99.90;;;;;;4978734;28;20133;-80
2023/08/08 07:53:30;;;;;;;5.30;3.03;;;15.70;99.90;;;;;;4998451;28;20575;-79
2023/08/08 07:55:55;;;;;;;2.75;2.55;;;15.70;99.90;;;;;;4998581;28;20050;-81
2023/08/08 07:58:25;;;;;;;3.40;2.17;;;15.70;99.90;;;;;;4987496;28;20135;-79
2023/08/08 08:00:53;;;;;;;3.17;2.78;;;15.70;99.90;;;;;;4966459;28;20030;-79
2023/08/08 08:03:19;;;;;;;3.60;3.03;;;15.70;99.90;;;;;;4985023;28;20069;-79
2023/08/08 08:05:45;;;;;;;4.55;2.97;;;15.70;99.90;;;;;;4982023;28;20034;-81
2023/08/08 08:08:10;;;;;;;3.25;2.78;;;15.80;99.90;;;;;;4997377;28;20045;-80
2023/08/08 08:10:37;;;;;;;3.42;2.20;;;15.90;99.90;;;;;;4993591;28;20042;-80
2023/08/08 08:13:03;;;;;;;2.65;2.45;;;16.00;99.90;;;;;;4997059;28;20078;-80
2023/08/08 08:15:29;;;;;;;2.70;2.20;;;16.10;99.90;;;;;;4995498;28;20038;-81
2023/08/08 08:17:55;;;;;;;2.70;2.00;;;16.30;99.90;;;;;;4994419;28;20486;-80
2023/08/08 08:20:21;;;;;;;5.97;2.17;;;16.50;99.90;;;;;;4976793;28;20030;-80
2023/08/08 08:22:46;;;;;;;2.13;1.90;;;16.70;99.90;;;;;;4996814;28;20527;-80
2023/08/08 08:25:13;;;;;;;4.55;2.13;;;17.00;99.90;;;;;;4995239;28;20066;-80
2023/08/08 08:27:39;;;;;;;2.30;2.10;;;17.10;99.90;;;;;;4994409;28;20050;-79
2023/08/08 08:30:06;;;;;;;2.55;1.80;;;17.10;99.90;;;;;;4985860;28;20089;-81
2023/08/08 08:32:34;;;;;;;4.13;2.20;;;17.10;99.90;;;;;;4990163;28;20670;-78
2023/08/08 08:35:06;;;;;;;2.25;1.80;;;17.10;99.90;;;;;;4991706;28;20037;-78
2023/08/08 08:37:32;;;;;;;2.00;1.80;;;16.90;99.90;;;;;;4968514;28;20513;-80
2023/08/08 08:39:58;;;;;;;2.38;2.17;;;16.70;99.90;;;;;;4988776;28;20664;-79
2023/08/08 08:42:26;;;;;;;2.47;2.08;;;16.50;99.90;;;;;;4986160;28;20117;-79
2023/08/08 08:44:55;;;;;;;3.63;1.83;;;16.40;99.90;;;;;;4983484;28;20042;-79
2023/08/08 08:47:22;;;;;;;2.08;1.40;;;16.20;99.90;;;;;;4991127;28;20035;-79
2023/08/08 08:49:48;;;;;;;1.88;1.55;;;16.10;99.90;;;;;;4987875;28;20042;-80
2023/08/08 08:52:14;;;;;;;2.90;1.52;;;15.80;99.90;;;;;;4968792;28;20144;-79
2023/08/08 08:54:40;;;;;;;3.80;1.83;;;15.70;99.90;;;;;;4972025;28;20038;-81
2023/08/08 08:57:05;;;;;;;3.55;1.92;;;15.50;99.90;;;;;;4983557;28;20026;-81
2023/08/08 08:59:31;;;;;;;1.75;1.63;;;15.40;99.90;;;;;;4984485;28;20607;-81
2023/08/08 09:01:57;;;;;;;9.15;3.15;;;15.30;99.90;;;;;;4987199;28;20019;-80
2023/08/08 09:04:23;;;;;;;7.63;1.42;;;15.30;99.90;;;;;;4991850;28;20038;-80
2023/08/08 09:06:50;;;;;;;1.88;1.52;;;15.50;99.90;;;;;;4955609;28;20035;-79
2023/08/08 09:09:17;;;;;;;2.00;1.60;;;15.50;99.90;;;;;;4985374;28;20538;-79
2023/08/08 09:11:45;;;;;;;1.90;1.50;;;15.50;99.90;;;;;;4967790;28;20034;-78
2023/08/08 09:14:25;;;;;;;1.20;0.80;;;15.50;99.90;;;;;;4971281;28;20395;-79
2023/08/08 09:16:56;;;;;;;1.95;1.40;;;15.50;99.90;;;;;;4971906;28;20109;-79
2023/08/08 09:19:23;;;;;;;1.83;1.38;;;15.50;99.90;;;;;;4981017;28;20667;-79
2023/08/08 09:21:49;;;;;;;1.75;1.50;;;15.50;99.90;;;;;;4983503;28;20093;-78
2023/08/08 09:24:15;;;;;;;1.92;1.10;;;15.50;99.90;;;;;;4980851;28;20051;-82
2023/08/08 09:26:43;;;;;;;3.28;1.20;;;15.50;99.90;;;;;;4986032;28;20039;-80
2023/08/08 09:29:11;;;;;;;3.53;1.55;;;15.50;99.90;;;;;;4989052;28;20113;-80
2023/08/08 09:31:37;;;;;;;1.90;1.40;;;15.50;99.90;;;;;;4995749;28;20045;-80
2023/08/08 09:34:04;;;;;;;3.70;1.30;;;15.40;99.90;;;;;;4978028;28;20094;-80
2023/08/08 09:36:30;;;;;;;3.30;1.40;;;15.40;99.90;;;;;;4992245;28;20034;-80
2023/08/08 09:38:56;;;;;;;4.82;2.03;;;15.40;99.90;;;;;;4997040;28;20364;-82
2023/08/08 09:41:23;;;;;;;1.85;1.40;;;15.50;99.90;;;;;;4973218;28;20049;-81
2023/08/08 09:43:53;;;;;;;1.30;1.20;;;15.50;99.90;;;;;;4987358;28;20117;-80
2023/08/08 09:46:20;;;;;;;1.40;1.30;;;15.60;99.90;;;;;;4987032;28;20033;-80
2023/08/08 09:48:46;;;;;;;4.28;1.50;;;15.70;99.90;;;;;;4984873;28;20055;-82
2023/08/08 09:51:13;;;;;;;5.30;1.40;;;15.80;99.90;;;;;;4986004;28;20058;-83
2023/08/08 09:53:40;;;;;;;1.52;1.42;;;15.90;99.90;;;;;;4990575;28;20046;-79
2023/08/08 09:56:08;;;;;;;3.67;1.10;;;15.90;99.90;;;;;;4987398;28;20121;-81
2023/08/08 09:58:34;;;;;;;1.48;1.38;;;15.90;99.90;;;;;;4986009;28;20105;-81
2023/08/08 10:01:00;;;;;;;1.80;1.08;;;15.80;99.90;;;;;;4987786;28;20504;-81
2023/08/08 10:03:27;;;;;;;3.45;1.20;;;15.70;99.90;;;;;;4969471;28;20506;-81
2023/08/08 10:05:53;;;;;;;2.30;1.10;;;15.70;99.90;;;;;;4986437;28;20583;-80
2023/08/08 10:08:19;;;;;;;2.95;1.23;;;15.80;99.90;;;;;;4989808;28;20103;-80
2023/08/08 10:10:47;;;;;;;1.55;1.45;;;15.80;99.90;;;;;;4986647;28;20054;-79
2023/08/08 10:13:27;;;;;;;3.90;1.10;;;15.80;99.90;;;;;;4984099;28;20845;-80
2023/08/08 10:15:54;;;;;;;1.75;1.10;;;15.90;99.90;;;;;;4987990;28;20027;-80
2023/08/08 10:18:23;;;;;;;1.55;1.10;;;15.90;99.90;;;;;;4991221;28;20054;-81
2023/08/08 10:20:51;;;;;;;2.55;1.10;;;15.80;99.90;;;;;;4971592;28;20668;-80
2023/08/08 10:23:18;;;;;;;3.80;1.10;;;16.00;99.90;;;;;;4990197;28;20041;-82
2023/08/08 10:25:49;;;;;;;1.67;1.35;;;16.10;99.90;;;;;;4989912;28;20030;-82
2023/08/08 10:28:18;;;;;;;5.13;1.10;;;16.30;99.90;;;;;;4988769;28;20558;-81
2023/08/08 10:30:50;;;;;;;2.78;1.00;;;16.40;99.90;;;;;;4972364;28;20030;-82
2023/08/08 10:33:20;;;;;;;0.90;0.90;;;16.50;99.90;;;;;;4988355;28;20698;-81
2023/08/08 10:36:06;;;;;;;4.88;1.30;;;16.50;99.90;;;;;;4991163;28;20018;-81
2023/08/08 10:38:50;;;;;;;2.35;1.25;;;16.50;99.90;;;;;;4988968;28;20038;-79
2023/08/08 10:41:18;;;;;;;2.40;0.90;;;16.60;99.90;;;;;;4989109;28;20034;-81
2023/08/08 10:43:57;;;;;;;3.15;1.10;;;16.70;99.90;;;;;;4989024;28;20038;-82
2023/08/08 10:46:42;;;;;;;1.85;1.00;;;16.80;99.90;;;;;;4989963;28;20037;-80
2023/08/08 10:49:08;;;;;;;1.10;1.00;;;16.90;99.90;;;;;;4988417;28;20073;-80
2023/08/08 10:51:36;;;;;;;1.67;0.85;;;17.00;99.90;;;;;;4971588;28;20035;-81
2023/08/08 10:54:06;;;;;;;2.08;1.02;;;17.00;99.90;;;;;;4992119;28;20022;-83
2023/08/08 10:56:32;;;;;;;1.23;0.80;;;17.00;99.90;;;;;;4983606;28;20169;-81
2023/08/08 10:58:58;;;;;;;2.90;1.20;;;17.00;99.90;;;;;;4989052;28;20058;-82
2023/08/08 11:01:27;;;;;;;1.67;0.90;;;17.10;99.90;;;;;;4991993;28;20053;-81
2023/08/08 11:03:54;;;;;;;1.50;1.02;;;17.10;99.90;;;;;;4990448;28;20042;-81
2023/08/08 11:06:20;;;;;;;3.60;1.08;;;17.10;99.90;;;;;;4975496;28;20050;-81
2023/08/08 11:08:46;;;;;;;3.05;1.30;;;17.20;99.90;;;;;;4984386;28;20030;-82
2023/08/08 11:11:12;;;;;;;1.55;1.00;;;17.20;99.90;;;;;;4967091;28;20045;-81
2023/08/08 11:13:38;;;;;;;1.30;1.20;;;17.20;99.90;;;;;;4987794;28;20038;-81
2023/08/08 11:16:04;;;;;;;2.05;1.10;;;17.20;99.90;;;;;;4990952;28;20027;-80
2023/08/08 11:18:30;;;;;;;4.45;1.23;;;17.20;99.90;;;;;;4989562;28;20133;-81
2023/08/08 11:20:56;;;;;;;3.95;1.05;;;17.20;99.90;;;;;;4985481;28;20034;-82
2023/08/08 11:23:21;;;;;;;3.05;1.15;;;17.20;99.90;;;;;;4988154;28;20383;-79
2023/08/08 11:25:48;;;;;;;3.20;1.10;;;17.20;99.90;;;;;;4969352;28;20038;-79
2023/08/08 11:28:14;;;;;;;2.17;1.15;;;17.10;99.90;;;;;;4987352;28;20138;-81
2023/08/08 11:30:43;;;;;;;2.30;1.15;;;17.10;99.90;;;;;;4965660;28;20042;-79
2023/08/08 11:33:09;;;;;;;3.03;1.42;;;17.10;99.90;;;;;;4967364;28;20418;-81
2023/08/08 11:35:35;;;;;;;1.77;1.20;;;17.10;99.90;;;;;;4984111;28;20038;-80
2023/08/08 11:38:02;;;;;;;1.20;1.02;;;17.10;99.90;;;;;;4987344;28;20109;-78
2023/08/08 11:40:29;;;;;;;2.42;1.13;;;17.10;99.90;;;;;;4967625;28;20129;-82
2023/08/08 11:42:59;;;;;;;1.80;0.88;;;17.20;99.90;;;;;;4986514;28;20041;-80
2023/08/08 11:45:25;;;;;;;2.67;1.02;;;17.40;99.90;;;;;;4990842;28;20041;-80
2023/08/08 11:47:54;;;;;;;2.15;0.95;;;17.50;99.90;;;;;;4984294;28;20039;-82
2023/08/08 11:50:23;;;;;;;3.55;0.90;;;17.60;99.90;;;;;;4982411;28;20043;-80
2023/08/08 11:52:53;;;;;;;2.72;1.17;;;17.60;99.90;;;;;;4992220;28;20023;-81
2023/08/08 11:55:22;;;;;;;1.40;1.30;;;17.70;99.90;;;;;;4965402;28;20034;-81
2023/08/08 11:57:48;;;;;;;2.38;1.23;;;17.70;99.90;;;;;;4994504;28;20346;-82
2023/08/08 12:00:15;;;;;;;2.50;1.10;;;17.80;99.90;;;;;;4975821;28;20030;-81
2023/08/08 12:02:42;;;;;;;2.47;1.23;;;17.80;99.90;;;;;;4974015;28;20044;-79
2023/08/08 12:05:13;;;;;;;4.90;1.17;;;17.90;99.90;;;;;;4986323;28;20030;-79
2023/08/08 12:07:44;;;;;;;1.67;1.10;;;18.00;99.90;;;;;;4984633;28;20130;-80
2023/08/08 12:10:17;;;;;;;2.85;0.95;;;18.00;99.90;;;;;;4991542;28;20610;-80
2023/08/08 12:12:43;;;;;;;1.17;0.90;;;18.00;99.90;;;;;;4992534;28;20114;-81
2023/08/08 12:15:09;;;;;;;1.48;1.30;;;18.00;99.90;;;;;;4986162;28;20034;-81
2023/08/08 12:17:36;;;;;;;2.75;1.08;;;18.00;99.90;;;;;;4995223;28;20057;-80
2023/08/08 12:20:07;;;;;;;1.23;1.02;;;17.90;99.90;;;;;;4973301;28;20579;-78
2023/08/08 12:22:33;;;;;;;1.92;1.30;;;17.90;99.90;;;;;;4992436;28;20583;-79
2023/08/08 12:25:00;;;;;;;2.55;1.10;;;17.90;99.90;;;;;;4992256;28;20070;-80
2023/08/08 12:27:29;;;;;;;3.28;1.30;;;17.90;99.90;;;;;;4974069;28;20030;-79
2023/08/08 12:29:56;;;;;;;2.25;0.82;;;17.90;99.90;;;;;;4974197;28;20035;-81
2023/08/08 12:32:23;;;;;;;2.38;1.10;;;17.90;99.90;;;;;;4969947;28;20043;-79
2023/08/08 12:34:50;;;;;;;2.30;0.85;;;17.90;99.90;;;;;;4975414;28;20041;-81
2023/08/08 12:37:15;;;;;;;2.97;0.85;;;17.90;99.90;;;;;;4994838;28;20030;-80
2023/08/08 12:39:41;;;;;;;1.33;0.88;;;17.90;99.90;;;;;;4993254;28;20042;-80
2023/08/08 12:42:07;;;;;;;1.48;1.17;;;17.90;99.90;;;;;;4995692;28;20034;-81
2023/08/08 12:44:33;;;;;;;1.73;0.98;;;18.00;99.90;;;;;;4999168;28;20038;-82